Time;durP1;ratioP1;P1;durP2;ratioP2;P2;SDS_P1;SDS_P2;PMS_P1;PMS_P2;Temp;Humidity;BMP_temperature;BMP_pressure;BME280_temperature;BME280_humidity;BME280_pressure;Samples;Min_cycle;Max_cycle;Signal;HPM_P1;HPM_P2
2022/06/24 00:00:33;;;;;;;0.30;0.20;;;21.50;85.10;;;;;;5059938;28;20037;-71
2022/06/24 00:03:00;;;;;;;0.22;0.22;;;21.40;85.10;;;;;;5059073;28;20492;-71
2022/06/24 00:05:28;;;;;;;0.43;0.38;;;21.30;86.10;;;;;;5059379;28;20055;-71
2022/06/24 00:07:54;;;;;;;0.63;0.30;;;21.20;87.40;;;;;;5044115;28;20044;-71
2022/06/24 00:10:28;;;;;;;0.47;0.30;;;21.10;89.40;;;;;;5067194;28;20048;-71
2022/06/24 00:12:54;;;;;;;0.30;0.30;;;21.00;91.00;;;;;;5059577;28;20059;-71
2022/06/24 00:15:28;;;;;;;0.60;0.50;;;20.80;92.20;;;;;;5060457;28;20037;-71
2022/06/24 00:17:53;;;;;;;0.32;0.32;;;20.60;93.20;;;;;;5061500;28;20044;-70
2022/06/24 00:20:21;;;;;;;0.77;0.50;;;20.50;94.20;;;;;;5048032;28;20064;-71
2022/06/24 00:22:49;;;;;;;0.40;0.40;;;20.30;94.90;;;;;;5065965;28;20427;-70
2022/06/24 00:25:23;;;;;;;0.47;0.40;;;20.20;96.40;;;;;;5043794;28;20397;-71
2022/06/24 00:28:10;;;;;;;0.40;0.40;;;20.10;97.40;;;;;;5059038;28;20545;-71
2022/06/24 00:30:45;;;;;;;0.70;0.50;;;19.90;98.60;;;;;;5052476;28;20414;-71
2022/06/24 00:33:16;;;;;;;0.50;0.50;;;19.90;99.50;;;;;;5082542;28;20687;-71
2022/06/24 00:35:47;;;;;;;0.43;0.43;;;19.80;99.90;;;;;;5060635;28;20064;-71
2022/06/24 00:38:25;;;;;;;1.35;0.50;;;19.70;99.90;;;;;;5062682;28;20084;-71
2022/06/24 00:41:05;;;;;;;0.75;0.60;;;19.50;99.90;;;;;;5069356;28;20049;-71
2022/06/24 00:43:34;;;;;;;0.50;0.50;;;19.40;99.90;;;;;;5063019;28;20420;-70
2022/06/24 00:46:23;;;;;;;0.50;0.50;;;19.40;99.90;;;;;;5065529;28;20094;-71
2022/06/24 00:48:51;;;;;;;0.40;0.40;;;19.30;99.90;;;;;;5046553;28;20047;-71
2022/06/24 00:51:19;;;;;;;1.58;0.40;;;19.30;99.90;;;;;;5063171;28;20041;-71
2022/06/24 00:53:51;;;;;;;0.40;0.40;;;19.20;99.90;;;;;;5046620;28;20052;-70
2022/06/24 00:56:18;;;;;;;0.47;0.40;;;19.10;99.90;;;;;;5060908;28;20032;-70
2022/06/24 00:59:11;;;;;;;0.60;0.55;;;19.00;99.90;;;;;;5062144;28;20044;-70
2022/06/24 01:01:37;;;;;;;0.82;0.52;;;18.90;99.90;;;;;;5043117;28;20071;-71
2022/06/24 01:04:07;;;;;;;2.92;0.80;;;18.80;99.90;;;;;;5062579;28;20135;-71
2022/06/24 01:06:35;;;;;;;1.30;0.60;;;18.70;99.90;;;;;;5061906;28;20380;-71
2022/06/24 01:09:01;;;;;;;0.57;0.50;;;18.70;99.90;;;;;;5060740;28;20064;-71
2022/06/24 01:11:39;;;;;;;0.55;0.55;;;18.70;99.90;;;;;;5063215;28;20056;-71
2022/06/24 01:14:06;;;;;;;0.40;0.40;;;18.70;99.90;;;;;;5066122;28;20348;-70
2022/06/24 01:16:32;;;;;;;0.88;0.60;;;18.60;99.90;;;;;;5063431;28;20068;-71
2022/06/24 01:19:02;;;;;;;0.40;0.40;;;18.50;99.90;;;;;;5068989;28;20156;-71
2022/06/24 01:21:37;;;;;;;2.70;0.80;;;18.50;99.90;;;;;;5065049;28;20434;-71
2022/06/24 01:24:20;;;;;;;0.60;0.60;;;18.40;99.90;;;;;;5067203;28;20083;-71
2022/06/24 01:26:52;;;;;;;0.68;0.50;;;18.30;99.90;;;;;;5066383;28;20224;-71
2022/06/24 01:29:19;;;;;;;0.52;0.50;;;18.30;99.90;;;;;;5062990;28;20032;-71
2022/06/24 01:31:48;;;;;;;0.50;0.50;;;18.30;99.90;;;;;;5062379;28;20037;-70
2022/06/24 01:34:18;;;;;;;0.50;0.50;;;18.30;99.90;;;;;;5063475;28;20431;-71
2022/06/24 01:36:44;;;;;;;0.63;0.60;;;18.30;99.90;;;;;;5049182;28;20041;-70
2022/06/24 01:39:09;;;;;;;;;;;18.30;99.90;;;;;;5062213;28;20109;-70
2022/06/24 01:41:36;;;;;;;0.60;0.60;;;18.30;99.90;;;;;;5060812;28;19921;-70
2022/06/24 01:44:02;;;;;;;0.63;0.60;;;18.20;99.90;;;;;;5062205;28;20086;-71
2022/06/24 01:46:28;;;;;;;0.50;0.50;;;18.20;99.90;;;;;;5062968;28;20537;-71
2022/06/24 01:48:54;;;;;;;0.60;0.60;;;18.20;99.90;;;;;;5046970;28;20072;-71
2022/06/24 01:51:20;;;;;;;;;;;18.20;99.90;;;;;;5064482;28;20064;-71
2022/06/24 01:53:46;;;;;;;1.23;0.60;;;18.10;99.90;;;;;;5046199;28;19924;-71
2022/06/24 01:56:12;;;;;;;;;;;18.10;99.90;;;;;;5069682;28;20063;-70
2022/06/24 01:58:38;;;;;;;0.50;0.50;;;18.10;99.90;;;;;;5047395;28;19926;-70
2022/06/24 02:01:03;;;;;;;;;;;18.00;99.90;;;;;;5062017;28;20040;-70
2022/06/24 02:03:33;;;;;;;0.73;0.60;;;18.00;99.90;;;;;;5061589;28;20023;-71
2022/06/24 02:06:06;;;;;;;0.50;0.50;;;18.10;99.90;;;;;;5060879;28;20148;-70
2022/06/24 02:08:32;;;;;;;0.52;0.50;;;18.10;99.90;;;;;;5063434;28;20032;-70
2022/06/24 02:13:47;;;;;;;0.50;0.37;;;18.10;99.90;;;;;;5060830;28;20082;-70
2022/06/24 02:16:13;;;;;;;0.60;0.50;;;18.00;99.90;;;;;;5060311;28;20309;-70
2022/06/24 02:18:40;;;;;;;0.80;0.50;;;18.00;99.90;;;;;;5069342;28;20045;-70
2022/06/24 02:21:06;;;;;;;0.60;0.55;;;17.90;99.90;;;;;;5062393;28;20396;-70
2022/06/24 02:23:31;;;;;;;;;;;17.90;99.90;;;;;;5064983;28;20595;-70
2022/06/24 02:25:57;;;;;;;0.60;0.60;;;17.90;99.90;;;;;;5063777;28;20002;-70
2022/06/24 02:28:23;;;;;;;;;;;17.90;99.90;;;;;;5065050;28;20074;-70
2022/06/24 02:30:52;;;;;;;1.20;0.60;;;18.00;99.90;;;;;;5042455;28;19974;-70
2022/06/24 02:33:18;;;;;;;0.98;0.60;;;18.10;99.90;;;;;;5061426;28;20385;-70
2022/06/24 02:35:44;;;;;;;;;;;18.20;99.90;;;;;;5047775;28;20037;-70
2022/06/24 02:38:09;;;;;;;0.60;0.60;;;18.30;99.90;;;;;;5061461;28;19926;-71
2022/06/24 02:40:51;;;;;;;0.50;0.50;;;18.40;99.90;;;;;;5060458;28;20206;-70
2022/06/24 02:43:22;;;;;;;0.57;0.57;;;18.50;99.90;;;;;;5066641;28;20053;-70
2022/06/24 02:45:50;;;;;;;0.50;0.45;;;18.60;99.90;;;;;;5061799;28;20074;-70
2022/06/24 02:48:17;;;;;;;0.65;0.50;;;18.70;99.90;;;;;;5072169;28;20037;-70
2022/06/24 02:50:45;;;;;;;0.52;0.30;;;18.70;99.90;;;;;;5061349;28;20170;-71
2022/06/24 02:53:11;;;;;;;0.50;0.40;;;18.80;99.90;;;;;;5043948;28;20442;-71
2022/06/24 02:55:37;;;;;;;;;;;18.80;99.90;;;;;;5059580;28;20139;-71
2022/06/24 02:58:06;;;;;;;0.55;0.50;;;18.80;99.90;;;;;;5040182;28;19974;-71
2022/06/24 03:00:32;;;;;;;0.63;0.40;;;18.80;99.90;;;;;;5043276;28;20036;-71
2022/06/24 03:02:58;;;;;;;0.52;0.40;;;18.90;99.90;;;;;;5062058;28;20060;-71
2022/06/24 03:05:24;;;;;;;;;;;18.80;99.90;;;;;;5062180;28;20075;-71
2022/06/24 03:07:49;;;;;;;0.30;0.30;;;18.90;99.90;;;;;;5063473;28;19916;-71
2022/06/24 03:10:15;;;;;;;;;;;18.80;99.90;;;;;;5061145;28;20037;-71
2022/06/24 03:12:42;;;;;;;0.50;0.40;;;18.80;99.90;;;;;;5061190;28;19927;-71
2022/06/24 03:15:08;;;;;;;0.30;0.30;;;18.90;99.90;;;;;;5068513;28;20407;-71
2022/06/24 03:17:34;;;;;;;0.52;0.40;;;18.90;99.90;;;;;;5060365;28;20036;-71
2022/06/24 03:20:00;;;;;;;;;;;18.90;99.90;;;;;;5066761;28;20103;-71
2022/06/24 03:22:25;;;;;;;0.40;0.40;;;18.90;99.90;;;;;;5043376;28;19934;-71
2022/06/24 03:24:52;;;;;;;0.55;0.40;;;18.90;99.90;;;;;;5052358;28;20037;-71
2022/06/24 03:27:17;;;;;;;0.40;0.40;;;18.90;99.90;;;;;;5061858;28;20054;-71
2022/06/24 03:29:43;;;;;;;;;;;19.00;99.90;;;;;;5061983;28;20040;-71
2022/06/24 03:32:09;;;;;;;0.60;0.60;;;19.10;99.90;;;;;;5062000;28;19920;-71
2022/06/24 03:34:34;;;;;;;0.60;0.50;;;19.20;99.90;;;;;;5060367;28;20136;-71
2022/06/24 03:37:00;;;;;;;;;;;19.30;99.90;;;;;;5049283;28;20139;-71
2022/06/24 03:39:26;;;;;;;0.47;0.47;;;19.40;99.90;;;;;;5060192;28;19962;-72
2022/06/24 03:41:52;;;;;;;0.63;0.57;;;19.50;99.90;;;;;;5066889;28;20123;-72
2022/06/24 03:44:17;;;;;;;0.40;0.40;;;19.50;99.90;;;;;;5062042;28;20044;-71
2022/06/24 03:46:43;;;;;;;;;;;19.50;99.90;;;;;;5060597;28;20075;-71
2022/06/24 03:49:09;;;;;;;0.82;0.60;;;19.50;99.90;;;;;;5043536;28;20018;-71
2022/06/24 03:51:35;;;;;;;0.40;0.40;;;19.50;99.90;;;;;;5059588;28;20098;-71
2022/06/24 03:54:01;;;;;;;0.35;0.35;;;19.50;99.90;;;;;;5044762;28;20048;-71
2022/06/24 03:56:26;;;;;;;;;;;19.50;99.90;;;;;;5061084;28;20052;-71
2022/06/24 03:58:52;;;;;;;0.50;0.50;;;19.50;99.90;;;;;;5059040;28;19925;-70
2022/06/24 04:01:17;;;;;;;;;;;19.50;99.90;;;;;;5050093;28;20048;-71
2022/06/24 04:03:43;;;;;;;0.88;0.50;;;19.50;99.90;;;;;;5059673;28;20299;-71
2022/06/24 04:06:09;;;;;;;;;;;19.50;99.90;;;;;;5065363;28;20048;-71
2022/06/24 04:08:35;;;;;;;0.30;0.30;;;19.40;99.90;;;;;;5065124;28;20286;-71
2022/06/24 04:11:15;;;;;;;;;;;19.40;99.90;;;;;;5065189;28;20460;-71
2022/06/24 04:13:41;;;;;;;0.40;0.40;;;19.40;99.90;;;;;;5082039;28;20049;-71
2022/06/24 04:16:07;;;;;;;0.75;0.57;;;19.40;99.90;;;;;;5071236;28;20072;-71
2022/06/24 04:18:33;;;;;;;;;;;19.50;99.90;;;;;;5037689;28;20171;-71
2022/06/24 04:20:59;;;;;;;0.40;0.40;;;19.50;99.90;;;;;;5063940;28;20306;-71
2022/06/24 04:23:24;;;;;;;;;;;19.40;99.90;;;;;;5053393;28;20156;-71
2022/06/24 04:25:50;;;;;;;0.30;0.30;;;19.50;99.90;;;;;;5065234;28;19928;-71
2022/06/24 04:28:16;;;;;;;;;;;19.50;99.90;;;;;;5052108;28;20079;-71
2022/06/24 04:30:43;;;;;;;0.40;0.40;;;19.50;99.90;;;;;;5050140;28;19916;-71
2022/06/24 04:33:08;;;;;;;0.32;0.32;;;19.50;99.90;;;;;;5065773;28;20165;-70
2022/06/24 04:35:34;;;;;;;;;;;19.60;99.90;;;;;;5066196;28;20093;-70
2022/06/24 04:38:00;;;;;;;0.40;0.40;;;19.60;99.90;;;;;;5063427;28;19963;-70
2022/06/24 04:40:25;;;;;;;;;;;19.60;99.90;;;;;;5068447;28;20044;-70
2022/06/24 04:42:51;;;;;;;0.30;0.30;;;19.70;99.90;;;;;;5062622;28;19916;-70
2022/06/24 04:45:17;;;;;;;;;;;19.70;99.90;;;;;;5061255;28;20489;-70
2022/06/24 04:47:42;;;;;;;0.40;0.40;;;19.80;99.90;;;;;;5061018;28;20018;-70
2022/06/24 04:50:08;;;;;;;;;;;19.80;99.90;;;;;;5061072;28;20051;-70
2022/06/24 04:52:35;;;;;;;0.40;0.30;;;19.90;99.90;;;;;;5063375;28;19981;-70
2022/06/24 04:55:02;;;;;;;0.20;0.20;;;19.90;99.90;;;;;;5063614;28;20581;-70
2022/06/24 04:57:28;;;;;;;0.60;0.40;;;20.00;99.90;;;;;;5064656;28;20106;-70
2022/06/24 04:59:53;;;;;;;;;;;20.10;99.90;;;;;;5059414;28;20041;-71
2022/06/24 05:02:19;;;;;;;0.60;0.50;;;20.20;99.90;;;;;;5059389;28;20011;-71
2022/06/24 05:04:44;;;;;;;;;;;20.30;99.90;;;;;;5057537;28;20127;-71
2022/06/24 05:07:10;;;;;;;0.45;0.45;;;20.30;99.90;;;;;;5056304;28;19924;-71
2022/06/24 05:09:36;;;;;;;;;;;20.30;99.90;;;;;;5060989;28;20039;-71
2022/06/24 05:12:02;;;;;;;0.32;0.32;;;20.40;99.90;;;;;;5058918;28;20007;-71
2022/06/24 05:14:33;;;;;;;0.63;0.60;;;20.40;99.90;;;;;;5061874;28;20155;-72
2022/06/24 05:16:59;;;;;;;0.40;0.40;;;20.40;99.90;;;;;;5056926;28;20036;-71
2022/06/24 05:19:24;;;;;;;;;;;20.50;99.90;;;;;;5062949;28;20096;-74
2022/06/24 05:21:50;;;;;;;0.47;0.43;;;20.50;99.90;;;;;;5046259;28;20012;-76
2022/06/24 05:24:17;;;;;;;0.47;0.47;;;20.50;99.90;;;;;;5080924;28;20067;-75
2022/06/24 05:26:44;;;;;;;;;;;20.40;99.90;;;;;;5070973;28;20072;-75
2022/06/24 05:29:10;;;;;;;0.55;0.40;;;20.40;99.90;;;;;;5069681;28;19917;-76
2022/06/24 05:31:35;;;;;;;;;;;20.40;99.90;;;;;;5067054;28;20609;-76
2022/06/24 05:34:01;;;;;;;0.60;0.40;;;20.30;99.90;;;;;;5052000;28;20310;-75
2022/06/24 05:36:27;;;;;;;0.40;0.40;;;20.40;99.90;;;;;;5070373;28;20036;-75
2022/06/24 05:38:53;;;;;;;;;;;20.40;99.90;;;;;;5079126;28;20075;-74
2022/06/24 05:41:18;;;;;;;1.90;0.50;;;20.50;99.90;;;;;;5061637;28;19920;-74
2022/06/24 05:43:45;;;;;;;1.75;1.10;;;20.60;99.90;;;;;;5064855;28;20044;-74
2022/06/24 05:46:11;;;;;;;1.80;1.25;;;20.60;99.90;;;;;;5074659;28;20520;-76
2022/06/24 05:48:37;;;;;;;;;;;20.70;99.90;;;;;;5065112;28;20124;-71
2022/06/24 05:51:11;;;;;;;1.35;1.20;;;20.80;99.90;;;;;;5062928;28;19928;-71
2022/06/24 05:56:22;;;;;;;5.45;3.00;;;20.70;99.90;;;;;;5064141;28;20048;-77
2022/06/24 05:58:48;;;;;;;4.07;3.38;;;20.70;99.90;;;;;;5064421;28;20485;-76
2022/06/24 06:01:14;;;;;;;4.40;2.95;;;20.60;99.90;;;;;;5045698;28;20037;-77
2022/06/24 06:03:40;;;;;;;5.75;3.47;;;20.60;99.90;;;;;;5048582;28;20347;-75
2022/06/24 06:06:06;;;;;;;;;;;20.60;99.90;;;;;;5050353;28;20490;-75
2022/06/24 06:08:32;;;;;;;5.13;4.13;;;20.60;99.90;;;;;;5064107;28;19924;-75
2022/06/24 06:10:58;;;;;;;;;;;20.50;99.90;;;;;;5066616;28;20028;-74
2022/06/24 06:13:24;;;;;;;2.95;2.63;;;20.50;99.90;;;;;;5062865;28;19933;-72
2022/06/24 06:15:49;;;;;;;2.38;1.70;;;20.50;99.90;;;;;;5062018;28;20040;-71
2022/06/24 06:18:15;;;;;;;;;;;20.40;99.90;;;;;;5054793;28;20044;-70
2022/06/24 06:20:41;;;;;;;1.45;1.27;;;20.50;99.90;;;;;;5060595;28;19928;-71
2022/06/24 06:23:06;;;;;;;;;;;20.60;99.90;;;;;;5054979;28;20609;-71
2022/06/24 06:25:33;;;;;;;4.15;2.20;;;20.50;99.90;;;;;;5086848;28;19959;-70
2022/06/24 06:28:01;;;;;;;4.63;2.40;;;20.30;99.90;;;;;;5050393;28;20516;-71
2022/06/24 06:30:30;;;;;;;4.68;2.35;;;20.20;99.90;;;;;;5065351;28;20044;-71
2022/06/24 06:32:56;;;;;;;6.18;2.20;;;19.90;99.90;;;;;;5070196;28;20048;-72
2022/06/24 06:35:21;;;;;;;;;;;19.80;99.90;;;;;;5070103;28;20044;-72
2022/06/24 06:37:47;;;;;;;3.97;1.73;;;19.60;99.90;;;;;;5070034;28;19947;-72
2022/06/24 06:40:12;;;;;;;;;;;19.70;99.90;;;;;;5070107;28;20052;-72
2022/06/24 06:42:38;;;;;;;2.17;1.30;;;19.70;99.90;;;;;;5067665;28;19956;-72
2022/06/24 06:45:04;;;;;;;;;;;19.70;99.90;;;;;;5069980;28;20127;-73
2022/06/24 06:47:30;;;;;;;3.05;1.40;;;19.50;99.90;;;;;;5050094;28;20012;-71
2022/06/24 06:49:55;;;;;;;;;;;19.60;99.90;;;;;;5068833;28;20040;-71
2022/06/24 06:52:21;;;;;;;1.88;1.00;;;19.70;99.90;;;;;;5069455;28;19916;-70
2022/06/24 06:54:46;;;;;;;;;;;19.80;99.90;;;;;;5051785;28;20114;-70
2022/06/24 06:57:12;;;;;;;1.05;0.63;;;19.80;99.90;;;;;;5047576;28;19916;-70
2022/06/24 06:59:38;;;;;;;;;;;19.90;99.90;;;;;;5051366;28;20036;-70
2022/06/24 07:02:04;;;;;;;3.00;1.60;;;19.90;99.90;;;;;;5064877;28;19995;-70
2022/06/24 07:04:30;;;;;;;2.60;1.02;;;20.00;99.90;;;;;;5065890;28;20186;-70
2022/06/24 07:06:55;;;;;;;;;;;19.90;99.90;;;;;;5067832;28;20472;-71
2022/06/24 07:09:21;;;;;;;1.60;0.90;;;20.00;99.90;;;;;;5062471;28;20294;-70
2022/06/24 07:11:46;;;;;;;;;;;19.90;99.90;;;;;;5069014;28;20041;-70
2022/06/24 07:14:12;;;;;;;1.70;1.00;;;19.70;99.90;;;;;;5069039;28;19924;-69
2022/06/24 07:16:37;;;;;;;;;;;19.80;99.90;;;;;;5073295;28;20071;-70
2022/06/24 07:19:03;;;;;;;4.15;1.10;;;19.80;99.90;;;;;;5086565;28;19920;-70
2022/06/24 07:21:29;;;;;;;4.40;1.77;;;19.70;99.90;;;;;;5062077;28;20514;-71
2022/06/24 07:23:55;;;;;;;;;;;19.80;99.90;;;;;;5051973;28;20032;-71
2022/06/24 07:26:21;;;;;;;3.95;2.00;;;19.70;99.90;;;;;;5070025;28;19924;-72
2022/06/24 07:28:46;;;;;;;;;;;19.60;99.90;;;;;;5080117;28;20081;-71
2022/06/24 07:31:16;;;;;;;;;;;19.60;99.90;;;;;;5073972;28;19966;-71
2022/06/24 07:33:42;;;;;;;;;;;19.60;99.90;;;;;;5072976;28;19963;-71
2022/06/24 07:36:07;;;;;;;;;;;19.50;99.90;;;;;;5075079;28;19956;-71
2022/06/24 07:38:33;;;;;;;;;;;19.60;99.90;;;;;;5062886;28;20615;-71
2022/06/24 07:40:59;;;;;;;;;;;19.60;99.90;;;;;;5074217;28;19957;-71
2022/06/24 07:43:24;;;;;;;;;;;19.40;99.90;;;;;;5081277;28;19916;-71
2022/06/24 07:45:53;;;;;;;;;;;19.50;99.90;;;;;;5057723;28;20308;-70
2022/06/24 07:48:19;;;;;;;;;;;19.50;99.90;;;;;;5077622;28;19919;-70
2022/06/24 07:50:45;;;;;;;;;;;19.40;99.90;;;;;;5073044;28;19927;-70
2022/06/24 07:53:11;;;;;;;;;;;19.50;99.90;;;;;;5074568;28;19920;-70
2022/06/24 07:58:21;;;;;;;;;;;19.40;99.90;;;;;;5073751;28;19916;-71
2022/06/24 08:00:47;;;;;;;;;;;19.70;99.90;;;;;;5067724;28;19916;-71
2022/06/24 08:03:14;;;;;;;;;;;19.50;99.90;;;;;;5069422;28;20284;-82
2022/06/24 08:05:40;;;;;;;;;;;19.50;99.90;;;;;;5077663;28;19917;-70
2022/06/24 08:08:06;;;;;;;;;;;19.50;99.90;;;;;;5062035;28;19919;-71
2022/06/24 08:10:31;;;;;;;;;;;19.60;99.90;;;;;;5080682;28;19920;-71
2022/06/24 08:12:57;;;;;;;;;;;19.60;99.90;;;;;;5061039;28;19952;-71
2022/06/24 08:15:22;;;;;;;;;;;19.60;99.90;;;;;;5067260;28;19970;-70
2022/06/24 08:17:48;;;;;;;;;;;19.50;99.90;;;;;;5065180;28;19969;-70
2022/06/24 08:20:14;;;;;;;;;;;19.50;99.90;;;;;;5066368;28;19999;-69
2022/06/24 08:22:39;;;;;;;;;;;19.50;99.90;;;;;;5064364;28;20449;-71
2022/06/24 08:25:05;;;;;;;;;;;19.60;99.90;;;;;;5045397;28;19967;-71
2022/06/24 08:27:30;;;;;;;;;;;19.60;99.90;;;;;;5060152;28;20004;-70
2022/06/24 08:29:56;;;;;;;;;;;19.80;99.90;;;;;;5085321;28;19916;-70
2022/06/24 08:32:21;;;;;;;;;;;19.70;99.90;;;;;;5072213;28;19931;-70
2022/06/24 08:34:47;;;;;;;;;;;19.90;99.90;;;;;;5076531;28;19990;-71
2022/06/24 08:37:13;;;;;;;;;;;20.00;99.90;;;;;;5087325;28;19920;-71
2022/06/24 08:39:38;;;;;;;;;;;19.80;99.90;;;;;;5089392;28;19920;-71
2022/06/24 08:42:04;;;;;;;;;;;19.90;99.90;;;;;;5088764;28;19920;-70
2022/06/24 08:44:30;;;;;;;;;;;19.80;99.90;;;;;;5088973;28;19924;-70
2022/06/24 08:46:55;;;;;;;;;;;19.90;99.90;;;;;;5088792;28;19923;-71
2022/06/24 08:49:21;;;;;;;;;;;19.80;99.90;;;;;;5089535;28;19919;-70
2022/06/24 08:51:49;;;;;;;;;;;20.00;99.90;;;;;;5090573;28;20335;-70
2022/06/24 08:54:19;;;;;;;;;;;20.10;99.90;;;;;;5092973;28;19927;-70
2022/06/24 08:56:45;;;;;;;;;;;20.10;99.90;;;;;;5092454;28;19916;-71
2022/06/24 08:59:11;;;;;;;;;;;20.00;99.90;;;;;;5092511;28;20045;-70
2022/06/24 09:01:40;;;;;;;;;;;20.10;99.90;;;;;;5092424;28;19915;-70
2022/06/24 09:04:07;;;;;;;;;;;20.10;99.90;;;;;;5075432;28;20387;-71
2022/06/24 09:06:36;;;;;;;;;;;20.00;99.90;;;;;;5084757;28;19917;-71
2022/06/24 09:09:02;;;;;;;;;;;20.00;99.90;;;;;;5086776;28;20359;-71
2022/06/24 09:11:35;;;;;;;;;;;19.90;99.90;;;;;;5092094;28;19973;-71
2022/06/24 09:14:00;;;;;;;;;;;19.90;99.90;;;;;;5092221;28;20014;-71
2022/06/24 09:16:26;;;;;;;;;;;19.80;99.90;;;;;;5093358;28;20082;-71
2022/06/24 09:18:53;;;;;;;;;;;19.90;99.90;;;;;;5092001;28;19973;-71
2022/06/24 09:21:23;;;;;;;;;;;19.70;99.90;;;;;;5077841;28;19932;-71
2022/06/24 09:23:56;;;;;;;;;;;19.70;99.90;;;;;;5092170;28;20537;-71
2022/06/24 09:26:38;;;;;;;;;;;19.60;99.90;;;;;;5091785;28;19920;-71
2022/06/24 09:29:05;;;;;;;;;;;19.40;99.90;;;;;;5091898;28;19916;-71
2022/06/24 09:31:31;;;;;;;;;;;19.50;99.90;;;;;;5074770;28;19989;-71
2022/06/24 09:34:05;;;;;;;;;;;19.50;99.90;;;;;;5075135;28;19973;-71
2022/06/24 09:36:33;;;;;;;;;;;19.50;99.90;;;;;;5091623;28;19946;-71
2022/06/24 09:39:03;;;;;;;;;;;19.40;99.90;;;;;;5092062;28;19920;-71
2022/06/24 09:41:28;;;;;;;;;;;19.30;99.90;;;;;;5091820;28;19943;-71
2022/06/24 09:43:57;;;;;;;;;;;19.50;99.90;;;;;;5091655;28;19924;-71
2022/06/24 09:46:24;;;;;;;;;;;19.30;99.90;;;;;;5075058;28;19943;-71
2022/06/24 09:48:51;;;;;;;;;;;19.60;99.90;;;;;;5091368;28;19915;-71
2022/06/24 09:51:17;;;;;;;;;;;19.20;99.90;;;;;;5062892;28;19916;-71
2022/06/24 09:53:43;;;;;;;;;;;19.10;99.90;;;;;;5069660;28;20407;-71
2022/06/24 09:56:09;;;;;;;;;;;19.20;99.90;;;;;;5053381;28;19916;-71
2022/06/24 09:58:35;;;;;;;;;;;19.30;99.90;;;;;;5084982;28;20229;-71
2022/06/24 10:01:01;;;;;;;;;;;19.40;99.90;;;;;;5071612;28;20268;-71
2022/06/24 10:03:27;;;;;;;;;;;19.20;99.90;;;;;;5069985;28;19942;-72
2022/06/24 10:05:54;;;;;;;;;;;19.40;99.90;;;;;;5081070;28;19916;-71
2022/06/24 10:08:20;;;;;;;;;;;19.20;99.90;;;;;;5058626;28;19920;-72
2022/06/24 10:10:46;;;;;;;;;;;19.00;99.90;;;;;;5069541;28;19928;-72
2022/06/24 10:13:32;;;;;;;;;;;19.00;99.90;;;;;;5068498;28;19920;-72
2022/06/24 10:15:58;;;;;;;;;;;19.30;99.90;;;;;;5078788;28;20449;-72
2022/06/24 10:18:27;;;;;;;;;;;19.00;99.90;;;;;;5073866;28;20279;-71
2022/06/24 10:20:56;;;;;;;;;;;18.90;99.90;;;;;;5081944;28;20402;-71
2022/06/24 10:23:37;;;;;;;;;;;19.20;99.90;;;;;;5078462;28;20010;-71
2022/06/24 10:26:22;;;;;;;;;;;19.10;99.90;;;;;;5085321;28;20320;-71
2022/06/24 10:28:59;;;;;;;;;;;19.20;99.90;;;;;;5065788;28;20343;-71
2022/06/24 10:31:44;;;;;;;;;;;18.80;99.90;;;;;;5071566;28;20015;-70
2022/06/24 10:34:26;;;;;;;;;;;19.10;99.90;;;;;;5067781;28;19967;-72
2022/06/24 10:36:53;;;;;;;;;;;18.80;99.90;;;;;;5087513;28;19916;-71
2022/06/24 10:39:19;;;;;;;;;;;19.30;99.90;;;;;;5087121;28;20069;-71
2022/06/24 10:41:45;;;;;;;;;;;19.10;99.90;;;;;;5068840;28;19959;-71
2022/06/24 10:44:27;;;;;;;;;;;19.20;99.90;;;;;;5069804;28;19958;-71
2022/06/24 10:47:18;;;;;;;;;;;19.00;99.90;;;;;;5065641;28;19920;-70
2022/06/24 10:50:12;;;;;;;;;;;18.90;99.90;;;;;;5054596;28;19931;-70
2022/06/24 10:52:48;;;;;;;;;;;18.30;99.90;;;;;;5064311;28;19924;-70
2022/06/24 10:55:29;;;;;;;;;;;18.50;99.90;;;;;;5067647;28;20320;-70
2022/06/24 10:57:59;;;;;;;;;;;18.10;99.90;;;;;;5065937;28;19916;-70
2022/06/24 11:00:24;;;;;;;;;;;18.20;99.90;;;;;;5070154;28;19916;-71
2022/06/24 11:02:57;;;;;;;;;;;18.60;99.90;;;;;;5066985;28;20291;-70
2022/06/24 11:05:25;;;;;;;;;;;18.60;99.90;;;;;;5065931;28;19924;-71
2022/06/24 11:07:51;;;;;;;;;;;18.00;99.90;;;;;;5067806;28;19923;-70
2022/06/24 11:10:17;;;;;;;;;;;17.70;99.90;;;;;;5069655;28;19970;-70
2022/06/24 11:12:51;;;;;;;;;;;17.50;99.90;;;;;;5068535;28;19920;-70
2022/06/24 11:15:17;;;;;;;;;;;18.00;99.90;;;;;;5049456;28;19960;-70
2022/06/24 11:17:43;;;;;;;;;;;17.90;99.90;;;;;;5056474;28;20021;-70
2022/06/24 11:20:09;;;;;;;;;;;18.10;99.90;;;;;;5088910;28;20337;-70
2022/06/24 11:22:42;;;;;;;;;;;17.80;99.90;;;;;;5079768;28;19916;-71
2022/06/24 11:25:08;;;;;;;;;;;17.50;99.90;;;;;;5083215;28;20009;-70
2022/06/24 11:27:35;;;;;;;;;;;18.00;99.90;;;;;;5077564;28;20268;-70
2022/06/24 11:30:01;;;;;;;;;;;17.70;99.90;;;;;;5059392;28;19924;-70
2022/06/24 11:32:26;;;;;;;;;;;17.40;99.90;;;;;;5046555;28;19920;-70
2022/06/24 11:34:52;;;;;;;;;;;17.60;99.90;;;;;;5064067;28;19924;-76
2022/06/24 11:37:22;;;;;;;;;;;17.40;99.90;;;;;;5067173;28;20327;-76
2022/06/24 11:39:51;;;;;;;;;;;17.30;99.90;;;;;;5069447;28;19965;-77
2022/06/24 11:42:16;;;;;;;;;;;17.40;99.90;;;;;;5069196;28;19927;-76
2022/06/24 11:44:42;;;;;;;;;;;17.30;99.90;;;;;;5069342;28;19921;-75
2022/06/24 11:47:08;;;;;;;;;;;17.90;99.90;;;;;;5069410;28;19964;-76
2022/06/24 11:49:34;;;;;;;;;;;17.60;99.90;;;;;;5069297;28;19931;-76
2022/06/24 11:52:00;;;;;;;;;;;17.50;99.90;;;;;;5069770;28;20026;-76
2022/06/24 11:54:30;;;;;;;;;;;17.40;99.90;;;;;;5059411;28;19916;-76
2022/06/24 11:56:56;;;;;;;;;;;17.50;99.90;;;;;;5066438;28;19928;-76
2022/06/24 11:59:23;;;;;;;;;;;17.40;99.90;;;;;;5049466;28;19948;-76
2022/06/24 12:01:49;;;;;;;;;;;17.40;99.90;;;;;;5054115;28;19921;-76
2022/06/24 12:04:15;;;;;;;;;;;17.60;99.90;;;;;;5062283;28;19928;-69
2022/06/24 12:06:41;;;;;;;;;;;17.70;99.90;;;;;;5060530;28;20329;-70
2022/06/24 12:09:08;;;;;;;;;;;17.60;99.90;;;;;;5068176;28;20401;-71
2022/06/24 12:11:40;;;;;;;;;;;17.90;99.90;;;;;;5058004;28;19928;-70
2022/06/24 12:14:10;;;;;;;;;;;17.80;99.90;;;;;;5056365;28;20462;-72
2022/06/24 12:17:08;;;;;;;;;;;18.10;99.90;;;;;;5067354;28;20382;-71
2022/06/24 12:19:54;;;;;;;;;;;18.20;99.90;;;;;;5036758;28;19971;-71
2022/06/24 12:22:19;;;;;;;;;;;17.90;99.90;;;;;;5064278;28;19920;-71
2022/06/24 12:24:45;;;;;;;;;;;18.20;99.90;;;;;;5061683;28;19974;-71
2022/06/24 12:27:12;;;;;;;;;;;17.80;99.90;;;;;;5072448;28;20227;-71
2022/06/24 12:29:38;;;;;;;;;;;18.30;99.90;;;;;;5059944;28;19920;-71
2022/06/24 12:32:05;;;;;;;;;;;17.90;99.90;;;;;;5058398;28;19923;-71
2022/06/24 12:34:34;;;;;;;;;;;18.30;99.90;;;;;;5063779;28;19916;-71
2022/06/24 12:37:02;;;;;;;;;;;18.00;99.90;;;;;;5072351;28;19916;-72
2022/06/24 12:39:33;;;;;;;;;;;18.60;99.90;;;;;;5071344;28;19971;-71
2022/06/24 12:41:59;;;;;;;;;;;18.90;99.90;;;;;;5069237;28;19928;-71
2022/06/24 12:44:44;;;;;;;;;;;18.80;99.90;;;;;;5071321;28;19927;-72
2022/06/24 12:52:41;;;;;;;;;;;19.20;99.90;;;;;;5088440;28;19931;-70
2022/06/24 12:55:08;;;;;;;;;;;19.50;99.90;;;;;;5092260;28;19959;-70
2022/06/24 12:57:34;;;;;;;;;;;19.90;99.90;;;;;;5073997;28;19916;-69
2022/06/24 12:59:59;;;;;;;;;;;19.80;99.90;;;;;;5057696;28;20033;-70
2022/06/24 13:02:25;;;;;;;;;;;19.90;99.90;;;;;;5059527;28;20322;-70
2022/06/24 13:04:51;;;;;;;;;;;19.90;99.90;;;;;;5071888;28;20000;-69
2022/06/24 13:07:16;;;;;;;;;;;20.00;99.90;;;;;;5068035;28;19959;-70
2022/06/24 13:09:42;;;;;;;;;;;20.00;99.90;;;;;;5054069;28;19924;-70
2022/06/24 13:12:07;;;;;;;;;;;19.90;99.90;;;;;;5071914;28;19943;-70
2022/06/24 13:14:33;;;;;;;;;;;20.00;99.90;;;;;;5072037;28;19921;-70
2022/06/24 13:16:59;;;;;;;;;;;20.40;99.90;;;;;;5078949;28;20012;-70
2022/06/24 13:19:25;;;;;;;;;;;20.40;99.90;;;;;;5093336;28;20007;-70
2022/06/24 13:21:50;;;;;;;;;;;20.40;99.90;;;;;;5091835;28;19920;-70
2022/06/24 13:24:16;;;;;;;;;;;20.50;99.90;;;;;;5091953;28;19920;-69
2022/06/24 13:26:41;;;;;;;;;;;20.50;99.90;;;;;;5091879;28;19916;-69
2022/06/24 13:29:07;;;;;;;;;;;20.50;99.90;;;;;;5078649;28;19920;-69
2022/06/24 13:31:32;;;;;;;;;;;20.70;99.90;;;;;;5087058;28;19931;-69
2022/06/24 13:33:58;;;;;;;;;;;20.60;99.90;;;;;;5075036;28;20295;-69
2022/06/24 13:36:24;;;;;;;;;;;20.80;99.90;;;;;;5091345;28;19920;-70
2022/06/24 13:38:49;;;;;;;;;;;20.70;99.90;;;;;;5091355;28;19924;-70
2022/06/24 13:41:15;;;;;;;;;;;20.70;99.90;;;;;;5091925;28;19927;-70
2022/06/24 13:43:40;;;;;;;;;;;21.00;99.90;;;;;;5091586;28;20287;-69
2022/06/24 13:46:06;;;;;;;;;;;21.00;99.90;;;;;;5074745;28;19916;-69
2022/06/24 13:48:32;;;;;;;;;;;21.50;99.90;;;;;;5075049;28;19915;-70
2022/06/24 13:50:57;;;;;;;;;;;21.60;99.90;;;;;;5091550;28;20295;-70
2022/06/24 13:53:23;;;;;;;;;;;21.60;99.90;;;;;;5091369;28;19935;-70
2022/06/24 13:55:48;;;;;;;;;;;21.60;99.90;;;;;;5091176;28;19920;-70